Time;durP1;ratioP1;P1;durP2;ratioP2;P2;SDS_P1;SDS_P2;PMS_P1;PMS_P2;Temp;Humidity;BMP_temperature;BMP_pressure;BME280_temperature;BME280_humidity;BME280_pressure;Samples;Min_cycle;Max_cycle;Signal;HPM_P1;HPM_P2
2021/08/22 00:01:29;;;;;;;9.40;6.38;;;;;;;20.75;56.29;93016.22;2068173;69;20592;-74
2021/08/22 00:03:54;;;;;;;10.77;6.50;;;;;;;21.01;52.73;93015.50;2068015;69;20608;-75
2021/08/22 00:06:20;;;;;;;8.30;6.60;;;;;;;21.10;53.95;93005.72;2068064;69;20199;-74
2021/08/22 00:08:47;;;;;;;8.43;6.28;;;;;;;21.45;51.67;93018.81;2068140;69;20149;-75
2021/08/22 00:11:13;;;;;;;9.77;6.65;;;;;;;21.57;52.31;93018.41;2068112;69;20135;-75
2021/08/22 00:13:39;;;;;;;11.88;6.30;;;;;;;21.56;51.22;93011.22;2068210;69;20237;-75
2021/08/22 00:16:05;;;;;;;9.73;6.78;;;;;;;21.25;51.84;93012.53;2068131;69;20137;-75
2021/08/22 00:18:31;;;;;;;11.45;6.57;;;;;;;21.35;52.08;93012.84;2068072;69;20395;-74
2021/08/22 00:20:57;;;;;;;8.40;6.50;;;;;;;21.23;52.76;93016.09;2068126;69;20144;-75
2021/08/22 00:23:23;;;;;;;11.20;6.45;;;;;;;20.96;53.21;93017.50;2067940;69;20532;-74
2021/08/22 00:25:49;;;;;;;10.75;6.05;;;;;;;20.99;53.71;93021.16;2067912;69;20496;-74
2021/08/22 00:28:14;;;;;;;8.55;6.50;;;;;;;20.69;54.95;93023.91;2068064;69;20133;-75
2021/08/22 00:30:40;;;;;;;11.27;7.10;;;;;;;20.46;56.70;93026.09;2068066;69;20163;-75
2021/08/22 00:33:05;;;;;;;10.10;6.57;;;;;;;20.49;54.58;93029.78;2068099;69;20520;-75
2021/08/22 00:35:31;;;;;;;8.65;6.90;;;;;;;20.63;54.99;93029.47;2067997;69;20164;-74
2021/08/22 00:37:57;;;;;;;11.95;6.60;;;;;;;20.24;57.70;93023.28;2068058;69;20153;-74
2021/08/22 00:40:24;;;;;;;9.95;6.57;;;;;;;20.60;55.29;93033.66;2068043;69;20159;-74
2021/08/22 00:42:49;;;;;;;9.85;6.45;;;;;;;20.33;56.26;93014.97;2068092;69;20156;-75
2021/08/22 00:45:16;;;;;;;10.20;6.65;;;;;;;20.35;56.14;93015.78;2064780;69;20592;-74
2021/08/22 00:47:45;;;;;;;10.52;6.40;;;;;;;20.23;55.79;93012.53;2068497;69;20586;-74
2021/08/22 00:50:18;;;;;;;10.05;6.57;;;;;;;20.47;55.20;93004.69;2068441;69;20650;-75
2021/08/22 00:52:44;;;;;;;10.73;6.82;;;;;;;20.46;54.03;92997.50;2068651;69;20152;-74
2021/08/22 00:55:10;;;;;;;8.23;6.80;;;;;;;20.50;55.13;92994.06;2068681;69;20143;-74
2021/08/22 00:57:36;;;;;;;8.05;7.00;;;;;;;20.31;56.86;93001.34;2068506;69;20145;-74
2021/08/22 01:00:13;;;;;;;10.73;6.60;;;;;;;20.17;57.39;92998.81;2068696;69;20144;-74
2021/08/22 01:03:06;;;;;;;10.93;6.72;;;;;;;20.08;58.46;92991.38;2068626;69;20531;-74
2021/08/22 01:06:04;;;;;;;12.45;6.53;;;;;;;20.22;57.89;92991.06;2062600;69;20144;-75
2021/08/22 01:08:42;;;;;;;9.50;6.82;;;;;;;20.18;57.52;92993.81;2068636;69;20168;-74
2021/08/22 01:11:15;;;;;;;13.68;7.07;;;;;;;19.81;58.65;92989.84;2068612;69;20144;-75
2021/08/22 01:13:49;;;;;;;9.50;7.30;;;;;;;19.90;57.73;92982.97;2068698;69;20168;-75
2021/08/22 01:16:18;;;;;;;9.68;6.72;;;;;;;19.95;57.99;92976.00;2068558;69;20306;-75
2021/08/22 01:18:47;;;;;;;10.25;6.93;;;;;;;20.37;53.80;92978.66;2068448;69;20580;-75
2021/08/22 01:21:17;;;;;;;8.30;6.38;;;;;;;20.17;55.80;92978.06;2068448;69;20233;-75
2021/08/22 01:23:47;;;;;;;8.43;6.63;;;;;;;20.00;57.70;92974.72;2065308;69;20148;-76
2021/08/22 01:26:16;;;;;;;10.65;6.57;;;;;;;20.16;54.82;92985.91;2068519;69;20147;-75
2021/08/22 01:28:45;;;;;;;9.50;6.57;;;;;;;20.09;56.78;92983.53;2068535;69;20151;-74
2021/08/22 01:31:16;;;;;;;12.05;7.38;;;;;;;19.32;59.51;92984.66;2068466;69;20172;-75
2021/08/22 01:33:42;;;;;;;9.70;6.43;;;;;;;19.84;56.16;92988.53;2068528;69;20152;-75
2021/08/22 01:36:10;;;;;;;10.20;6.93;;;;;;;19.66;59.05;92990.81;2068494;69;20622;-75
2021/08/22 01:38:36;;;;;;;11.75;6.75;;;;;;;19.69;58.33;92984.47;2068546;69;20191;-75
2021/08/22 01:41:03;;;;;;;9.15;6.80;;;;;;;19.85;57.56;92980.69;2065150;69;20133;-75
2021/08/22 01:43:31;;;;;;;9.40;7.03;;;;;;;19.70;58.57;92993.75;2068525;69;20156;-74
2021/08/22 01:45:58;;;;;;;10.93;6.95;;;;;;;19.64;57.87;92985.00;2068576;69;20141;-73
2021/08/22 01:48:24;;;;;;;10.85;6.78;;;;;;;19.53;58.81;92975.38;2068329;69;20140;-73
2021/08/22 01:50:55;;;;;;;10.13;6.65;;;;;;;19.23;59.96;92972.97;2068591;69;20156;-74
2021/08/22 01:53:21;;;;;;;10.75;6.95;;;;;;;19.48;59.45;92965.22;2068513;69;20172;-73
2021/08/22 01:55:47;;;;;;;10.00;6.28;;;;;;;19.63;58.12;92958.59;2068483;69;20136;-73
2021/08/22 01:58:14;;;;;;;11.90;7.35;;;;;;;19.48;58.29;92950.94;2068367;69;20256;-73
2021/08/22 02:00:40;;;;;;;7.82;6.75;;;;;;;19.63;57.29;92955.00;2068451;69;20193;-74
2021/08/22 02:03:34;;;;;;;9.98;6.53;;;;;;;19.57;57.03;92963.34;2068537;69;20218;-74
2021/08/22 02:06:09;;;;;;;9.50;6.88;;;;;;;19.01;60.17;92966.53;2068461;69;20222;-74
2021/08/22 02:08:36;;;;;;;11.32;6.90;;;;;;;19.37;59.29;92975.56;2068486;69;20152;-74
2021/08/22 02:11:17;;;;;;;10.88;7.18;;;;;;;19.33;58.72;92980.41;2068434;69;20153;-73
2021/08/22 02:13:45;;;;;;;10.63;6.68;;;;;;;19.53;57.81;92969.66;2068479;69;20147;-73
2021/08/22 02:16:15;;;;;;;10.00;6.65;;;;;;;19.46;58.68;92965.16;2068426;69;20159;-74
2021/08/22 02:18:42;;;;;;;9.40;6.05;;;;;;;19.73;56.89;92963.88;2068337;69;20614;-74
2021/08/22 02:21:08;;;;;;;10.00;7.13;;;;;;;19.43;58.67;92972.19;2068476;69;20141;-74
2021/08/22 02:23:34;;;;;;;8.80;6.68;;;;;;;19.43;58.93;92969.34;2068445;69;20225;-74
2021/08/22 02:26:00;;;;;;;10.95;7.38;;;;;;;19.10;60.68;92978.94;2067844;69;20584;-74
2021/08/22 02:28:27;;;;;;;12.02;7.18;;;;;;;19.22;58.99;92982.94;2068114;69;20684;-74
2021/08/22 02:30:52;;;;;;;9.55;6.65;;;;;;;19.29;59.48;92993.19;2064807;69;20188;-74
2021/08/22 02:33:18;;;;;;;9.93;6.80;;;;;;;18.76;62.02;92982.81;2067977;69;20195;-74
2021/08/22 02:35:44;;;;;;;12.20;7.30;;;;;;;18.84;61.85;92976.66;2064674;69;20231;-74
2021/08/22 02:38:09;;;;;;;11.18;7.00;;;;;;;18.92;61.60;92979.81;2068084;69;20215;-74
2021/08/22 02:40:35;;;;;;;10.65;6.88;;;;;;;19.17;61.02;92978.50;2064833;69;20176;-74
2021/08/22 02:43:00;;;;;;;10.98;7.18;;;;;;;19.20;60.38;92985.00;2068047;69;20156;-73
2021/08/22 02:45:27;;;;;;;10.50;7.50;;;;;;;18.43;63.96;92980.19;2068015;69;20596;-73
2021/08/22 02:47:58;;;;;;;10.15;7.05;;;;;;;18.76;61.98;92987.78;2068087;69;20655;-74
2021/08/22 02:50:26;;;;;;;9.30;6.80;;;;;;;18.96;60.60;92979.19;2068268;69;20175;-74
2021/08/22 02:52:51;;;;;;;10.00;6.88;;;;;;;19.06;61.30;92982.41;2064918;69;20192;-74
2021/08/22 02:55:17;;;;;;;11.35;7.05;;;;;;;18.98;61.55;92980.00;2068086;69;20188;-74
2021/08/22 02:57:43;;;;;;;10.05;6.95;;;;;;;19.05;61.65;92981.66;2068360;69;20161;-74
2021/08/22 03:00:09;;;;;;;9.05;6.93;;;;;;;19.09;60.44;92975.38;2068207;69;20171;-74
2021/08/22 03:02:35;;;;;;;10.13;7.10;;;;;;;19.04;60.39;92996.59;2068198;69;20501;-74
2021/08/22 03:05:01;;;;;;;10.10;6.78;;;;;;;19.15;61.49;93000.50;2068180;69;20722;-74
2021/08/22 03:07:26;;;;;;;12.95;6.68;;;;;;;19.15;61.59;92998.41;2068232;69;20148;-74
2021/08/22 03:09:52;;;;;;;9.45;7.15;;;;;;;19.12;62.08;93011.13;2068177;69;20137;-74
2021/08/22 03:12:17;;;;;;;10.77;7.13;;;;;;;19.16;60.39;93016.25;2068211;69;20600;-74
2021/08/22 03:14:43;;;;;;;14.77;7.47;;;;;;;18.49;64.16;93037.41;2068285;69;20149;-74
2021/08/22 03:17:09;;;;;;;11.30;7.20;;;;;;;18.86;62.65;93059.44;2068363;69;20619;-74
2021/08/22 03:19:34;;;;;;;10.55;6.97;;;;;;;19.34;59.14;93065.41;2068138;69;20144;-73
2021/08/22 03:22:00;;;;;;;10.48;7.20;;;;;;;19.43;59.38;93067.13;2068367;69;20621;-73
2021/08/22 03:24:25;;;;;;;12.65;7.85;;;;;;;19.19;61.44;93077.69;2068316;69;20176;-73
2021/08/22 03:26:51;;;;;;;14.32;7.05;;;;;;;19.23;59.93;93072.88;2068346;69;20231;-73
2021/08/22 03:29:16;;;;;;;10.23;6.95;;;;;;;19.49;58.01;93069.47;2068409;69;20148;-73
2021/08/22 03:31:42;;;;;;;9.15;6.75;;;;;;;19.66;56.52;93070.78;2068449;69;20241;-73
2021/08/22 03:34:08;;;;;;;9.65;7.00;;;;;;;19.32;60.76;93071.03;2068117;69;20136;-74
2021/08/22 03:36:33;;;;;;;11.45;7.57;;;;;;;18.87;62.64;93078.00;2068404;69;20129;-73
2021/08/22 03:38:59;;;;;;;11.32;7.32;;;;;;;19.19;59.33;93092.69;2068427;69;20153;-74
2021/08/22 03:41:25;;;;;;;9.48;6.75;;;;;;;19.37;59.07;93106.16;2068258;69;20201;-74
2021/08/22 03:43:50;;;;;;;15.05;8.07;;;;;;;19.34;59.87;93107.50;2068280;69;20168;-74
2021/08/22 03:46:16;;;;;;;12.35;7.25;;;;;;;19.47;58.01;93124.38;2068299;69;20136;-73
2021/08/22 03:48:41;;;;;;;9.20;6.95;;;;;;;19.68;60.01;93136.50;2068220;69;20184;-74
2021/08/22 03:51:07;;;;;;;10.10;6.68;;;;;;;19.50;60.77;93134.47;2068370;69;20172;-73
2021/08/22 03:53:32;;;;;;;14.95;7.60;;;;;;;19.50;61.39;93148.00;2068390;69;20239;-74
2021/08/22 03:55:58;;;;;;;12.30;7.30;;;;;;;19.40;63.73;93170.50;2068454;69;20144;-73
2021/08/22 03:58:25;;;;;;;14.77;7.30;;;;;;;19.52;62.38;93139.53;2068303;69;20155;-74
2021/08/22 04:00:50;;;;;;;11.27;7.38;;;;;;;19.45;64.04;93117.84;2068344;69;20164;-74
2021/08/22 04:03:16;;;;;;;14.50;7.25;;;;;;;19.41;64.80;93100.59;2064843;69;20517;-73
2021/08/22 04:06:07;;;;;;;11.15;6.95;;;;;;;19.51;61.85;93073.09;2068159;69;20619;-74
2021/08/22 04:08:38;;;;;;;12.10;7.40;;;;;;;19.37;65.94;93051.91;2068200;69;20152;-74
2021/08/22 04:11:04;;;;;;;10.70;7.53;;;;;;;19.25;67.89;93041.56;2068181;69;20615;-74
2021/08/22 04:13:30;;;;;;;9.77;7.32;;;;;;;19.29;67.33;93050.25;2068224;69;20224;-74
2021/08/22 04:15:55;;;;;;;14.23;7.38;;;;;;;19.34;65.83;93064.69;2068187;69;20152;-74
2021/08/22 04:18:21;;;;;;;10.25;7.13;;;;;;;19.52;62.62;93060.31;2068309;69;20509;-74
2021/08/22 04:20:46;;;;;;;9.20;6.72;;;;;;;19.48;65.44;93065.16;2068494;69;20140;-74
2021/08/22 04:23:12;;;;;;;14.13;7.68;;;;;;;18.98;68.27;93079.84;2065440;69;20144;-75
2021/08/22 04:25:38;;;;;;;10.85;7.57;;;;;;;18.25;72.55;93079.97;2068797;69;20164;-75
2021/08/22 04:28:07;;;;;;;11.57;7.63;;;;;;;18.74;69.70;93073.28;2068682;69;20200;-76
2021/08/22 04:30:33;;;;;;;10.55;7.53;;;;;;;19.06;67.49;93079.41;2068720;69;20144;-76
2021/08/22 04:32:59;;;;;;;11.77;7.47;;;;;;;19.01;68.11;93084.25;2068670;69;20200;-75
2021/08/22 04:35:25;;;;;;;12.43;7.70;;;;;;;19.03;67.12;93075.03;2068584;69;20183;-75
2021/08/22 04:37:51;;;;;;;9.15;6.55;;;;;;;19.20;63.46;93077.06;2068657;69;20156;-75
2021/08/22 04:40:16;;;;;;;11.20;7.57;;;;;;;19.02;66.79;93076.41;2068671;69;20140;-75
2021/08/22 04:42:42;;;;;;;8.73;7.05;;;;;;;19.16;68.39;93087.59;2065375;69;20133;-75
2021/08/22 04:45:08;;;;;;;10.85;7.75;;;;;;;19.04;67.45;93088.63;2068680;69;20239;-75
2021/08/22 04:47:33;;;;;;;10.75;6.97;;;;;;;19.03;68.12;93084.31;2068659;69;20144;-75
2021/08/22 04:49:59;;;;;;;10.38;7.13;;;;;;;19.21;64.24;93103.47;2068588;69;20154;-75
2021/08/22 04:52:24;;;;;;;9.45;6.93;;;;;;;19.50;65.83;93097.34;2068677;69;20211;-75
2021/08/22 04:54:50;;;;;;;11.73;7.07;;;;;;;18.98;69.32;93096.97;2065315;69;20234;-75
2021/08/22 04:57:16;;;;;;;10.02;7.47;;;;;;;19.12;67.95;93096.03;2068587;69;20516;-75
2021/08/22 04:59:41;;;;;;;12.75;8.02;;;;;;;18.89;67.65;93085.94;2068616;69;20214;-75
2021/08/22 05:02:07;;;;;;;9.98;7.80;;;;;;;18.96;68.70;93085.47;2068623;69;20709;-75
2021/08/22 05:04:33;;;;;;;11.65;7.45;;;;;;;19.01;69.38;93081.41;2068494;69;20144;-75
2021/08/22 05:06:58;;;;;;;10.52;7.30;;;;;;;19.37;63.95;93091.88;2068636;69;20151;-75
2021/08/22 05:09:24;;;;;;;10.32;7.40;;;;;;;19.14;69.43;93084.66;2068595;69;20211;-75
2021/08/22 05:11:49;;;;;;;11.15;7.88;;;;;;;19.04;69.73;93077.22;2068659;69;20519;-75
2021/08/22 05:14:15;;;;;;;12.27;7.72;;;;;;;19.20;67.72;93087.75;2068614;69;20156;-74
2021/08/22 05:16:43;;;;;;;12.40;8.23;;;;;;;18.90;71.04;93084.53;2068596;69;20240;-74
2021/08/22 05:19:09;;;;;;;12.15;7.45;;;;;;;18.71;72.51;93108.81;2068487;69;20259;-74
2021/08/22 05:21:35;;;;;;;10.70;7.13;;;;;;;19.18;67.71;93099.06;2068665;69;20625;-73
2021/08/22 05:24:00;;;;;;;11.48;7.10;;;;;;;19.11;70.09;93105.97;2068826;69;20164;-73
2021/08/22 05:26:26;;;;;;;11.50;6.95;;;;;;;19.13;69.58;93100.31;2068567;69;20145;-75
2021/08/22 05:28:52;;;;;;;11.40;7.60;;;;;;;18.98;70.89;93096.97;2068536;69;20159;-75
2021/08/22 05:31:18;;;;;;;12.70;7.32;;;;;;;19.09;71.58;93091.63;2068465;69;20176;-74
2021/08/22 05:33:44;;;;;;;8.43;6.93;;;;;;;19.36;63.55;93085.44;2068251;69;20168;-74
2021/08/22 05:36:33;;;;;;;9.73;7.38;;;;;;;19.35;70.49;93088.97;2068507;69;20246;-75
2021/08/22 05:38:58;;;;;;;10.43;7.53;;;;;;;19.31;70.86;93100.97;2068673;69;20631;-75
2021/08/22 05:41:24;;;;;;;10.52;7.90;;;;;;;18.93;70.50;93089.66;2068495;69;20172;-75
2021/08/22 05:43:49;;;;;;;12.15;8.00;;;;;;;19.38;69.66;93096.19;2068472;69;20156;-74
2021/08/22 05:46:15;;;;;;;10.23;7.40;;;;;;;19.46;70.35;93097.19;2067844;69;20156;-75
2021/08/22 05:48:41;;;;;;;12.55;8.02;;;;;;;19.48;71.77;93100.13;2067927;69;20168;-75
2021/08/22 05:51:12;;;;;;;11.85;8.15;;;;;;;19.58;70.37;93091.19;2068067;69;20148;-74
2021/08/22 05:53:41;;;;;;;9.52;7.43;;;;;;;19.58;71.24;93099.75;2067668;69;20156;-74
2021/08/22 05:56:07;;;;;;;11.88;7.70;;;;;;;19.58;70.37;93104.72;2068018;69;20151;-74
2021/08/22 05:58:32;;;;;;;12.80;8.13;;;;;;;19.60;71.25;93107.66;2068011;69;20148;-74
2021/08/22 06:01:00;;;;;;;10.65;8.23;;;;;;;19.52;71.10;93114.56;2068058;69;20172;-74
2021/08/22 06:03:26;;;;;;;11.00;8.13;;;;;;;19.61;70.03;93118.44;2067936;69;20620;-74
2021/08/22 06:05:53;;;;;;;11.07;7.93;;;;;;;19.65;69.06;93132.13;2067914;69;20184;-75
2021/08/22 06:08:18;;;;;;;10.18;7.63;;;;;;;19.49;70.65;93133.00;2067846;69;20170;-76
2021/08/22 06:10:44;;;;;;;9.88;7.82;;;;;;;19.60;70.42;93136.97;2067914;69;20639;-75
2021/08/22 06:13:10;;;;;;;12.00;8.13;;;;;;;19.73;69.42;93144.56;2068098;69;20176;-73
2021/08/22 06:15:35;;;;;;;9.77;8.18;;;;;;;19.60;69.79;93145.53;2068413;69;20148;-74
2021/08/22 06:18:01;;;;;;;13.05;8.20;;;;;;;19.56;69.90;93139.66;2068341;69;20606;-73
2021/08/22 06:20:26;;;;;;;10.98;7.90;;;;;;;19.49;70.61;93144.44;2068243;69;20592;-73
2021/08/22 06:22:52;;;;;;;13.07;8.13;;;;;;;19.48;70.17;93142.25;2068403;69;20162;-74
2021/08/22 06:25:18;;;;;;;15.07;8.38;;;;;;;19.45;70.70;93141.44;2068492;69;20238;-72
2021/08/22 06:27:43;;;;;;;10.82;7.45;;;;;;;19.55;69.19;93147.47;2067209;69;20151;-73
2021/08/22 06:30:09;;;;;;;11.63;8.00;;;;;;;19.68;63.58;93151.53;2067551;69;20162;-73
2021/08/22 06:32:35;;;;;;;10.38;7.75;;;;;;;19.77;64.98;93138.25;2068588;69;20176;-74
2021/08/22 06:35:00;;;;;;;15.05;7.95;;;;;;;19.84;67.05;93148.50;2068224;69;20335;-74
2021/08/22 06:37:26;;;;;;;9.75;7.75;;;;;;;19.92;67.87;93145.16;2067952;69;20191;-73
2021/08/22 06:39:52;;;;;;;11.23;7.95;;;;;;;19.64;70.66;93145.66;2068135;69;20235;-74
2021/08/22 06:42:18;;;;;;;10.93;7.15;;;;;;;19.89;69.27;93141.53;2068336;69;20148;-74
2021/08/22 06:44:43;;;;;;;10.68;7.85;;;;;;;20.04;68.02;93154.88;2067810;69;20584;-76
2021/08/22 06:47:10;;;;;;;10.55;8.20;;;;;;;20.09;69.96;93160.72;2068176;69;20156;-75
2021/08/22 06:49:36;;;;;;;11.85;8.60;;;;;;;20.01;69.64;93161.19;2068036;69;20217;-73
2021/08/22 06:52:04;;;;;;;11.23;8.00;;;;;;;20.10;68.72;93156.47;2068329;69;20167;-76
2021/08/22 06:54:30;;;;;;;11.40;7.75;;;;;;;20.10;68.40;93150.75;2068418;69;20148;-74
2021/08/22 06:56:56;;;;;;;12.27;9.20;;;;;;;19.69;71.25;93157.97;2068295;69;20152;-73
2021/08/22 06:59:24;;;;;;;14.73;9.35;;;;;;;19.49;71.38;93150.13;2068361;69;20676;-74
2021/08/22 07:01:50;;;;;;;10.55;8.15;;;;;;;19.88;68.03;93165.03;2068350;69;20272;-75
2021/08/22 07:04:16;;;;;;;10.68;8.25;;;;;;;20.04;67.21;93149.16;2068211;69;20137;-76
2021/08/22 07:06:41;;;;;;;10.15;7.70;;;;;;;20.08;69.88;93148.56;2068359;69;20160;-75
2021/08/22 07:09:07;;;;;;;12.85;7.95;;;;;;;20.11;67.64;93149.34;2068399;69;20152;-76
2021/08/22 07:11:33;;;;;;;14.27;9.02;;;;;;;19.88;70.52;93145.03;2068227;69;20147;-76
2021/08/22 07:13:58;;;;;;;13.30;9.15;;;;;;;19.96;69.76;93148.88;2068213;69;20147;-76
2021/08/22 07:16:25;;;;;;;11.55;8.10;;;;;;;19.96;67.93;93148.16;2068261;69;20148;-76
2021/08/22 07:18:52;;;;;;;11.45;7.90;;;;;;;20.02;69.73;93154.06;2064981;69;20349;-76
2021/08/22 07:21:18;;;;;;;14.02;7.97;;;;;;;19.94;69.66;93143.13;2068265;69;20183;-76
2021/08/22 07:23:44;;;;;;;10.25;7.93;;;;;;;20.02;70.11;93146.25;2068275;69;20176;-77
2021/08/22 07:26:10;;;;;;;13.05;8.20;;;;;;;20.10;71.23;93147.88;2068249;69;20592;-76
2021/08/22 07:28:37;;;;;;;10.85;8.13;;;;;;;20.12;71.59;93150.84;2068398;69;20181;-77
2021/08/22 07:31:05;;;;;;;11.80;7.68;;;;;;;20.24;68.46;93163.38;2068276;69;20141;-76
2021/08/22 07:33:31;;;;;;;10.55;8.15;;;;;;;20.27;69.02;93167.75;2068273;69;20153;-76
2021/08/22 07:35:57;;;;;;;10.57;7.60;;;;;;;20.32;69.45;93168.63;2068223;69;20235;-76
2021/08/22 07:38:23;;;;;;;9.75;7.80;;;;;;;20.22;64.22;93176.88;2064946;69;20164;-76
2021/08/22 07:40:49;;;;;;;9.70;7.63;;;;;;;20.39;67.94;93173.16;2068285;69;20152;-76
2021/08/22 07:43:16;;;;;;;12.55;8.77;;;;;;;20.14;69.53;93173.75;2068182;69;20151;-76
2021/08/22 07:45:43;;;;;;;12.35;8.07;;;;;;;20.41;66.08;93167.47;2064911;69;20140;-76
2021/08/22 07:48:09;;;;;;;12.35;8.57;;;;;;;20.02;69.08;93165.50;2068188;69;20237;-77
2021/08/22 07:50:35;;;;;;;11.05;8.35;;;;;;;19.72;70.97;93165.94;2068128;69;20604;-78
2021/08/22 07:53:00;;;;;;;13.45;9.77;;;;;;;19.76;72.19;93157.50;2068225;69;20254;-77
2021/08/22 07:55:26;;;;;;;13.77;8.98;;;;;;;19.67;72.65;93152.19;2068253;69;20145;-76
2021/08/22 07:57:52;;;;;;;12.48;8.18;;;;;;;19.72;70.90;93145.94;2068669;69;20152;-78
2021/08/22 08:00:18;;;;;;;10.63;7.88;;;;;;;19.95;68.06;93146.69;2068702;69;20144;-78
2021/08/22 08:02:44;;;;;;;11.05;8.05;;;;;;;20.23;67.45;93144.75;2068744;69;20242;-77
2021/08/22 08:05:10;;;;;;;13.93;8.38;;;;;;;20.37;65.50;93141.63;2068480;69;20148;-77
2021/08/22 08:07:36;;;;;;;12.52;8.52;;;;;;;20.24;68.55;93139.78;2068761;69;20141;-76
2021/08/22 08:10:02;;;;;;;10.52;7.53;;;;;;;20.27;66.69;93136.31;2069983;69;20302;-76
2021/08/22 08:12:28;;;;;;;9.88;7.63;;;;;;;20.13;68.38;93141.59;2069936;69;20160;-76
2021/08/22 08:14:55;;;;;;;10.10;7.30;;;;;;;20.11;70.79;93141.50;2069817;69;20316;-77
2021/08/22 08:17:21;;;;;;;9.00;6.93;;;;;;;20.50;64.04;93140.63;2068605;69;20175;-77
2021/08/22 08:19:46;;;;;;;9.35;7.38;;;;;;;20.61;67.73;93129.50;2068493;69;20149;-77
2021/08/22 08:22:13;;;;;;;9.18;6.63;;;;;;;20.62;66.49;93120.25;2065163;69;20600;-78
2021/08/22 08:24:38;;;;;;;7.90;6.60;;;;;;;20.61;69.45;93129.50;2068611;69;20231;-78
2021/08/22 08:27:04;;;;;;;8.27;6.57;;;;;;;20.84;64.79;93119.44;2068451;69;20141;-77
2021/08/22 08:29:30;;;;;;;9.00;6.90;;;;;;;20.90;69.37;93120.38;2068688;69;20221;-78
2021/08/22 08:31:55;;;;;;;12.32;8.30;;;;;;;20.37;70.78;93124.47;2068773;69;20141;-77
2021/08/22 08:34:21;;;;;;;9.98;8.05;;;;;;;20.93;65.98;93121.88;2068470;69;20186;-77
2021/08/22 08:36:47;;;;;;;10.05;7.80;;;;;;;21.37;65.73;93127.44;2068628;69;20678;-77
2021/08/22 08:39:13;;;;;;;10.85;7.40;;;;;;;21.50;66.98;93126.38;2068483;69;20148;-77
2021/08/22 08:41:39;;;;;;;10.38;7.18;;;;;;;21.45;62.84;93133.38;2068486;69;20133;-78
2021/08/22 08:44:05;;;;;;;8.65;6.82;;;;;;;21.69;64.72;93132.56;2068677;69;20201;-76
2021/08/22 08:46:30;;;;;;;9.48;7.43;;;;;;;21.78;63.22;93132.09;2068519;69;20144;-78
2021/08/22 08:49:14;;;;;;;9.93;7.45;;;;;;;21.73;64.85;93126.97;2068419;69;20505;-78
2021/08/22 08:52:17;;;;;;;8.23;6.97;;;;;;;22.03;62.65;93121.97;2068591;69;20651;-78
2021/08/22 08:55:02;;;;;;;8.40;7.35;;;;;;;21.90;65.17;93130.94;2068507;69;20180;-77
2021/08/22 08:57:30;;;;;;;9.98;7.15;;;;;;;22.35;62.02;93129.94;2068518;69;20183;-78
2021/08/22 08:59:56;;;;;;;9.65;6.97;;;;;;;22.75;60.83;93117.94;2068582;69;20565;-79
2021/08/22 09:02:21;;;;;;;9.77;7.75;;;;;;;22.67;62.41;93114.91;2068569;69;20225;-81
2021/08/22 09:05:09;;;;;;;8.27;7.28;;;;;;;22.73;60.80;93106.44;2068487;69;20146;-81
2021/08/22 09:07:53;;;;;;;12.38;7.05;;;;;;;22.47;59.63;93109.44;2068649;69;20279;-81
2021/08/22 09:10:43;;;;;;;9.75;7.45;;;;;;;22.76;62.02;93105.06;2068508;69;20157;-80
2021/08/22 09:13:37;;;;;;;9.18;7.30;;;;;;;22.91;60.03;93103.25;2065279;69;20535;-80
2021/08/22 09:16:30;;;;;;;9.55;7.03;;;;;;;22.73;60.59;93109.31;2068670;69;20153;-81
2021/08/22 09:19:30;;;;;;;10.30;7.10;;;;;;;23.37;58.89;93103.47;2064222;69;20152;-80
2021/08/22 09:22:33;;;;;;;7.03;6.32;;;;;;;23.40;60.19;93110.69;2068202;69;20180;-80
2021/08/22 09:25:37;;;;;;;8.25;6.03;;;;;;;23.33;60.89;93098.38;2068401;69;20238;-80
2021/08/22 09:28:48;;;;;;;7.80;6.47;;;;;;;23.34;58.91;93099.09;2065092;69;20239;-81
2021/08/22 09:31:51;;;;;;;7.35;6.03;;;;;;;23.32;61.76;93101.91;2062928;69;20203;-80
2021/08/22 09:34:53;;;;;;;7.53;6.00;;;;;;;23.40;60.51;93096.34;2068387;69;20241;-81
2021/08/22 09:38:04;;;;;;;10.85;6.13;;;;;;;23.54;59.09;93102.34;2068578;69;20180;-80
2021/08/22 09:40:35;;;;;;;6.30;5.30;;;;;;;23.57;62.72;93091.63;2063993;69;20177;-79
2021/08/22 09:43:38;;;;;;;7.78;5.63;;;;;;;23.49;63.97;93077.84;2068477;69;20227;-80
2021/08/22 09:46:26;;;;;;;6.97;5.50;;;;;;;23.63;61.07;93077.38;2068394;69;20146;-79
2021/08/22 09:49:39;;;;;;;8.45;5.65;;;;;;;23.42;61.21;93070.53;2068320;69;20168;-83
2021/08/22 09:52:37;;;;;;;7.30;5.85;;;;;;;23.43;60.97;93062.66;2055293;69;20131;-80
2021/08/22 09:55:28;;;;;;;11.90;6.70;;;;;;;23.50;62.86;93055.56;2068657;69;20228;-79
2021/08/22 09:57:56;;;;;;;10.50;5.93;;;;;;;23.75;61.98;93054.63;2064492;69;20145;-79
2021/08/22 10:00:37;;;;;;;9.75;6.40;;;;;;;23.91;58.93;93050.56;2065111;69;20517;-77
2021/08/22 10:03:21;;;;;;;7.40;6.32;;;;;;;23.90;59.59;93046.25;2064995;69;20624;-80
2021/08/22 10:06:14;;;;;;;9.35;6.47;;;;;;;23.91;57.78;93048.41;2065261;69;20138;-80
2021/08/22 10:09:01;;;;;;;7.05;6.25;;;;;;;24.20;57.50;93049.63;2065004;69;20607;-80
2021/08/22 10:11:38;;;;;;;6.90;6.15;;;;;;;23.92;57.80;93049.16;2065061;69;20223;-79
2021/08/22 10:14:08;;;;;;;7.95;6.60;;;;;;;23.70;58.39;93064.59;2065108;69;20605;-80
2021/08/22 10:16:33;;;;;;;8.15;6.22;;;;;;;22.96;58.92;93056.00;2065030;69;20148;-79
2021/08/22 10:19:04;;;;;;;6.95;6.03;;;;;;;23.39;57.79;93062.56;2064840;69;20141;-80
2021/08/22 10:21:29;;;;;;;8.15;5.47;;;;;;;23.33;57.63;93055.28;2065006;69;20609;-80
2021/08/22 10:23:58;;;;;;;6.55;5.50;;;;;;;22.97;58.94;93058.19;2065151;69;20315;-80
2021/08/22 10:26:52;;;;;;;9.07;5.80;;;;;;;23.21;58.33;93055.06;2064893;69;20165;-79
2021/08/22 10:29:22;;;;;;;6.47;5.50;;;;;;;22.57;59.92;93044.41;2064934;69;20643;-80
2021/08/22 10:31:54;;;;;;;8.50;5.88;;;;;;;22.41;60.54;93055.53;2065180;69;20153;-79
2021/08/22 10:34:26;;;;;;;7.07;5.90;;;;;;;21.72;62.46;93051.00;2064963;69;20153;-79
2021/08/22 10:36:52;;;;;;;8.17;5.80;;;;;;;21.26;63.05;93043.38;2065041;69;20172;-78
2021/08/22 10:41:50;;;;;;;6.95;5.70;;;;;;;21.61;62.27;93050.00;2065058;69;20152;-79
2021/08/22 10:44:36;;;;;;;7.03;5.97;;;;;;;21.81;61.72;93041.94;2065129;69;20137;-79
2021/08/22 10:47:03;;;;;;;6.57;5.57;;;;;;;21.65;61.89;93043.66;2064966;69;20164;-78
2021/08/22 10:49:54;;;;;;;9.27;6.95;;;;;;;22.14;62.25;93042.00;2064831;69;20577;-79
2021/08/22 10:52:29;;;;;;;7.20;5.35;;;;;;;22.13;63.30;93044.16;2064991;69;20159;-78
2021/08/22 10:55:05;;;;;;;7.38;5.65;;;;;;;22.38;63.63;93042.53;2065015;69;20149;-79
2021/08/22 10:57:49;;;;;;;6.72;5.20;;;;;;;22.53;63.88;93037.84;2066746;69;20214;-78
2021/08/22 11:00:31;;;;;;;9.05;6.00;;;;;;;22.00;63.57;93043.09;2068367;69;20153;-79
2021/08/22 11:02:57;;;;;;;8.47;6.27;;;;;;;22.06;61.78;93033.91;2068362;69;20133;-78
2021/08/22 11:05:28;;;;;;;9.88;6.22;;;;;;;21.87;62.64;93035.63;2068262;69;20175;-78
2021/08/22 11:07:55;;;;;;;7.60;6.53;;;;;;;21.36;65.18;93037.22;2068341;69;20539;-77
2021/08/22 11:10:27;;;;;;;8.88;7.15;;;;;;;21.25;65.42;93029.72;2068261;69;20140;-77
2021/08/22 11:12:53;;;;;;;11.65;9.25;;;;;;;21.52;64.96;93029.00;2068360;69;20168;-76
2021/08/22 11:15:29;;;;;;;11.10;7.05;;;;;;;21.49;64.85;93036.13;2068281;69;20239;-78
2021/08/22 11:17:59;;;;;;;9.38;6.82;;;;;;;21.73;63.22;93024.53;2068336;69;20154;-79
2021/08/22 11:20:30;;;;;;;8.50;6.35;;;;;;;21.99;62.87;93021.56;2063553;69;20227;-78
2021/08/22 11:23:05;;;;;;;7.75;5.43;;;;;;;22.21;62.86;93026.38;2064969;69;20225;-77
2021/08/22 11:25:31;;;;;;;8.40;5.20;;;;;;;22.23;64.32;93017.84;2064952;69;20671;-78
2021/08/22 11:28:23;;;;;;;9.82;5.85;;;;;;;22.25;64.68;93004.25;2064840;69;20686;-78
2021/08/22 11:30:48;;;;;;;12.27;6.72;;;;;;;21.97;62.76;93004.31;2063997;69;20215;-77
2021/08/22 11:33:15;;;;;;;8.95;6.93;;;;;;;21.72;66.41;93003.03;2064771;69;20247;-74
2021/08/22 11:35:43;;;;;;;8.13;6.25;;;;;;;21.63;66.47;92994.91;2064821;69;20211;-76
2021/08/22 11:38:10;;;;;;;11.98;8.32;;;;;;;21.53;67.66;92996.13;2064867;69;20141;-77
2021/08/22 11:40:37;;;;;;;9.82;7.22;;;;;;;21.99;66.01;92998.66;2064888;69;20141;-77
2021/08/22 11:43:05;;;;;;;10.15;8.38;;;;;;;21.35;67.93;93000.63;2064808;69;20144;-77
2021/08/22 11:45:35;;;;;;;12.70;7.85;;;;;;;21.21;68.46;93001.72;2064840;69;20153;-77